AirNav   Pilot Hours Calculator
 
 1376 users online  

41FL Southern Machine & Steel Yard Heliport
Fort Myers, Florida, USA

GOING TO FORT MYERS?


FAA INFORMATION EFFECTIVE 05 DECEMBER 2019

Location

FAA Identifier: 41FL
Lat/Long: 26-38-03.2610N 081-50-02.3060W
26-38.054350N 081-50.038433W
26.6342392,-81.8339739
(estimated)
Elevation: 18 ft. / 5 m (estimated)
Variation: 02W (1985)
Time zone: UTC -5 (UTC -4 during Daylight Saving Time)
Zip code: 33916

Heliport Operations

Heliport use: Private use. Permission required prior to landing
Activation date: 08/1981
Control tower: no
ARTCC: MIAMI CENTER
FSS: MIAMI FLIGHT SERVICE STATION
Attendance: UNATNDD
Wind indicator: yes
Segmented circle: no

Heliport Communications

WX ASOS at FMY (3 nm SW): 123.725 (239-936-2318)
WX ASOS at RSW (7 nm SE): PHONE 239-561-0966
WX ASOS at PGD (19 nm NW): 135.675 (941-639-0076)

Nearby radio navigation aids

VOR radial/distance  VOR name  Freq  Var
RSWr335/7.0LEE COUNTY VORTAC111.8002W
PGDr160/(18.9)PUNTA GORDA VOR110.2006W
LBVr243/26.4LA BELLE VORTAC110.4001E
CYYr357/29.0CYPRESS VOR/DME108.6003W

 
NDB name  Hdg/Dist  Freq  Var  ID
CALOO044/9.434103WFM ..-. --

Heliport Services

Runway Information

Helipad H1

Dimensions: 360 x 140 ft. / 110 x 43 m
Surface: asphalt, in fair condition
Latitude: 26-38.054350N
Longitude: 081-50.038433W
Elevation: 18.0 ft.
Traffic pattern: leftleft
Markings: none, in fair condition

Heliport Ownership and Management from official FAA records

Ownership: Privately-owned
Owner: SOUTHERN MACHINE & STEEL
3945 EDISON AVE
FORT MYERS, FL 33901
Phone 813-334-4327
Manager: MICHAEL K. BLACKWELL
16971 LAURELIN CT.
N. FORT MYERS, FL 33917
Phone 239-334-4327

Heliport Operational Statistics

Aircraft based on the field: 1
Helicopters: 1
    

Additional Remarks

FOR CD CTC FORT MYERS APCH AT 239-768-1377, WHEN APCH CLSD CTC MIAMI ARTCC AT 305-716-1731.

Instrument Procedures

There are no published instrument procedures at 41FL.

Some nearby airports with instrument procedures:

KFMY - Page Field Airport (3 nm SW)
KRSW - Southwest Florida International Airport (7 nm SE)
KPGD - Punta Gorda Airport (19 nm NW)
X14 - La Belle Municipal Airport (23 nm E)
KIMM - Immokalee Regional Airport (26 nm SE)
 
Loc | Ops | Rwys | IFR | FBO | Links
Com | Nav | Svcs | Stats | Notes


 
Area around 41FL (Southern Machine & Steel Yard Heliport)
 
Road maps at: MapQuest Bing Google
 
Aerial photo
No photo
 
Sectional chart

 
Airport distance calculator
Flying to Southern Machine & Steel Yard Heliport? Find the distance to fly.

From to 41FL

Sunrise and sunset
Times for 09-Dec-2019
 Local
(UTC-5)
 Zulu
(UTC)
Morning civil twilight06:4011:40
Sunrise07:0512:05
Sunset17:3422:34
Evening civil twilight17:5922:59

Current date and time
Zulu (UTC)  09-Dec-2019 17:46:26
Local (UTC-5)  09-Dec-2019 12:46:26
 
METAR
KFMY 
4nm SW 
091653Z 18008KT 10SM CLR 27/17 A3010 RMK AO2 SLP195 T02720172
KRSW 
7nm SE 
091653Z 17007G15KT 10SM CLR 26/18 A3010 RMK AO2 SLP191 T02610178
KPGD 
19nm NW 
091653Z 17006KT 10SM CLR 26/16 A3012 RMK AO2 SLP199 T02610161
TAF
KFMY 
4nm SW 
091128Z 0912/1012 10003KT P6SM SKC FM091500 14007KT P6SM SCT040 FM091900 19007KT P6SM SCT050 FM100100 VRB03KT P6SM FEW050
KRSW 
7nm SE 
091128Z 0912/1012 VRB03KT P6SM SKC FM091500 14007KT P6SM SCT040 FM100100 VRB03KT P6SM FEW050
KPGD 
19nm NW 
091128Z 0912/1012 VRB03KT P6SM SKC TEMPO 0912/0913 5SM BR FM091500 14008KT P6SM SCT040 FM091900 19007KT P6SM SCT050 FM100100 VRB03KT P6SM FEW050
NOTAMs
Click for the latest NOTAMs
NOTAMs are issued by the DoD/FAA and will open in a separate window not controlled by AirNav.

 

 
 

Would you like to see your business listed on this page?

 If your business provides an interesting product or service to pilots, flight crews, aircraft, or users of the Southern Machine & Steel Yard Heliport, you should consider listing it here.  To start the listing process, click on the button below
 
Add a business
 

Other Pages about Southern Machine & Steel Yard Heliport

Update a link
 
Copyright © AirNav, LLC. All rights reserved. Privacy Policy  Contact